Time;durP1;ratioP1;P1;durP2;ratioP2;P2;SDS_P1;SDS_P2;PMS_P1;PMS_P2;Temp;Humidity;BMP_temperature;BMP_pressure;BME280_temperature;BME280_humidity;BME280_pressure;Samples;Min_cycle;Max_cycle;Signal;HPM_P1;HPM_P2
2022/04/21 00:02:24;;;;;;;19.55;12.18;;;7.00;99.90;;;;;;4923283;29;20080;-85
2022/04/21 00:04:50;;;;;;;23.30;13.40;;;7.00;99.90;;;;;;4922356;29;20032;-82
2022/04/21 00:07:17;;;;;;;20.33;12.80;;;7.00;99.90;;;;;;4922542;29;20115;-84
2022/04/21 00:09:42;;;;;;;20.92;13.18;;;7.00;99.90;;;;;;4921473;29;20029;-84
2022/04/21 00:12:09;;;;;;;21.00;13.45;;;7.00;99.90;;;;;;4922445;29;20031;-83
2022/04/21 00:14:35;;;;;;;21.67;13.98;;;6.90;99.90;;;;;;4922694;29;20044;-83
2022/04/21 00:17:01;;;;;;;24.35;14.23;;;6.90;99.90;;;;;;4922369;29;20053;-83
2022/04/21 00:19:26;;;;;;;24.45;14.38;;;6.80;99.90;;;;;;4922278;29;20021;-84
2022/04/21 00:24:37;;;;;;;23.15;14.70;;;6.80;99.90;;;;;;4919563;29;20044;-84
2022/04/21 00:27:04;;;;;;;22.48;14.35;;;6.80;99.90;;;;;;4919026;29;20088;-83
2022/04/21 00:29:30;;;;;;;24.55;14.90;;;6.80;99.90;;;;;;4918592;29;20048;-85
2022/04/21 00:31:56;;;;;;;30.98;15.43;;;6.80;99.90;;;;;;4918105;29;20036;-83
2022/04/21 00:34:22;;;;;;;23.27;14.05;;;6.80;99.90;;;;;;4917743;29;20036;-85
2022/04/21 00:36:48;;;;;;;28.35;14.93;;;6.80;99.90;;;;;;4917240;29;20032;-84
2022/04/21 00:39:14;;;;;;;24.80;14.75;;;6.80;99.90;;;;;;4918644;29;20036;-85
2022/04/21 00:41:41;;;;;;;25.30;16.23;;;6.80;99.90;;;;;;4919872;29;20024;-85
2022/04/21 00:44:07;;;;;;;25.88;14.68;;;6.70;99.90;;;;;;4917407;29;20040;-86
2022/04/21 00:46:38;;;;;;;23.30;13.88;;;6.70;99.90;;;;;;4916732;29;20036;-86
2022/04/21 00:49:06;;;;;;;23.50;13.43;;;6.70;99.90;;;;;;4917301;29;20036;-85
2022/04/21 00:51:32;;;;;;;22.55;14.05;;;6.70;99.90;;;;;;4912883;29;20118;-84
2022/04/21 00:54:00;;;;;;;23.88;13.50;;;6.70;99.90;;;;;;4912062;29;20033;-86
2022/04/21 00:56:26;;;;;;;24.35;13.95;;;6.70;99.90;;;;;;4910336;29;20029;-85
2022/04/21 00:58:53;;;;;;;20.02;12.45;;;6.70;99.90;;;;;;4910358;29;20029;-86
2022/04/21 01:04:04;;;;;;;21.73;12.57;;;6.70;99.90;;;;;;4912346;29;20088;-85
2022/04/21 01:06:30;;;;;;;19.77;13.10;;;6.70;99.90;;;;;;4909888;29;20025;-83
2022/04/21 01:08:56;;;;;;;21.88;13.43;;;6.60;99.90;;;;;;4896657;29;20067;-84
2022/04/21 01:11:22;;;;;;;22.15;12.55;;;6.60;99.90;;;;;;4905180;29;20040;-84
2022/04/21 01:13:48;;;;;;;21.70;13.43;;;6.60;99.90;;;;;;4905275;29;20056;-83
2022/04/21 01:16:14;;;;;;;21.20;12.63;;;6.60;99.90;;;;;;4902923;29;20056;-83
2022/04/21 01:18:43;;;;;;;21.80;13.18;;;6.60;99.90;;;;;;4902517;29;20109;-84
2022/04/21 01:21:08;;;;;;;20.95;13.15;;;6.50;99.90;;;;;;4903235;29;20028;-83
2022/04/21 01:23:34;;;;;;;22.83;13.75;;;6.50;99.90;;;;;;4900844;29;20497;-84
2022/04/21 01:26:02;;;;;;;21.15;13.52;;;6.50;99.90;;;;;;4903117;29;20060;-85
2022/04/21 01:28:30;;;;;;;25.15;14.05;;;6.50;99.90;;;;;;4902956;29;20485;-84
2022/04/21 01:30:56;;;;;;;28.48;13.20;;;6.50;99.90;;;;;;4902460;29;20111;-84
2022/04/21 01:33:24;;;;;;;17.90;12.05;;;6.40;99.90;;;;;;4903857;29;20180;-85
2022/04/21 01:35:51;;;;;;;26.48;14.73;;;6.40;99.90;;;;;;4903611;29;20020;-84
2022/04/21 01:41:10;;;;;;;23.52;13.90;;;6.40;99.90;;;;;;4909343;29;20045;-83
2022/04/21 01:43:37;;;;;;;26.13;13.43;;;6.40;99.90;;;;;;4911387;29;20115;-84
2022/04/21 01:46:03;;;;;;;26.05;13.85;;;6.30;99.90;;;;;;4912926;29;20062;-85
2022/04/21 01:48:29;;;;;;;24.45;13.85;;;6.40;99.90;;;;;;4896258;29;20131;-86
2022/04/21 01:50:55;;;;;;;24.17;14.10;;;6.30;99.90;;;;;;4905949;29;20055;-85
2022/04/21 01:53:21;;;;;;;25.90;14.48;;;6.30;99.90;;;;;;4904181;29;20481;-84
2022/04/21 01:55:47;;;;;;;25.08;13.93;;;6.30;99.90;;;;;;4903195;29;20021;-86
2022/04/21 01:58:13;;;;;;;24.48;14.18;;;6.30;99.90;;;;;;4904633;29;20037;-85
2022/04/21 02:00:40;;;;;;;24.30;13.98;;;6.20;99.90;;;;;;4910536;29;20280;-83
2022/04/21 02:03:06;;;;;;;27.38;14.27;;;6.20;99.90;;;;;;4909171;29;20051;-84
2022/04/21 02:05:32;;;;;;;23.95;14.70;;;6.20;99.90;;;;;;4912898;29;20025;-83
2022/04/21 02:07:58;;;;;;;24.33;14.30;;;6.20;99.90;;;;;;4920661;29;20028;-84
2022/04/21 02:10:24;;;;;;;25.10;15.25;;;6.20;99.90;;;;;;4914546;29;20039;-87
2022/04/21 02:12:51;;;;;;;29.13;15.05;;;6.20;99.90;;;;;;4914270;29;20029;-85
2022/04/21 02:15:17;;;;;;;29.58;14.77;;;6.20;99.90;;;;;;4920958;29;20028;-83
2022/04/21 02:17:44;;;;;;;24.02;14.48;;;6.20;99.90;;;;;;4910035;29;20040;-84
2022/04/21 02:20:14;;;;;;;28.73;14.82;;;6.20;99.90;;;;;;4910396;29;20021;-86
2022/04/21 02:22:40;;;;;;;25.33;14.60;;;6.20;99.90;;;;;;4916221;29;20024;-83
2022/04/21 02:25:08;;;;;;;25.02;14.15;;;6.20;99.90;;;;;;4920970;29;20032;-84
2022/04/21 02:27:36;;;;;;;35.95;15.68;;;6.10;99.90;;;;;;4921590;29;20069;-84
2022/04/21 02:30:07;;;;;;;22.10;13.85;;;6.10;99.90;;;;;;4908768;29;20045;-85
2022/04/21 02:32:33;;;;;;;22.98;14.80;;;6.10;99.90;;;;;;4924671;29;20028;-83
2022/04/21 02:34:59;;;;;;;30.33;15.65;;;6.10;99.90;;;;;;4924852;29;20029;-82
2022/04/21 02:37:25;;;;;;;26.10;14.57;;;6.10;99.90;;;;;;4924338;29;20035;-82
2022/04/21 02:39:51;;;;;;;26.95;14.48;;;6.20;99.90;;;;;;4925320;29;20036;-83
2022/04/21 02:42:18;;;;;;;29.75;15.70;;;6.10;99.90;;;;;;4924144;29;20051;-82
2022/04/21 02:44:44;;;;;;;27.15;15.48;;;6.10;99.90;;;;;;4913571;29;20543;-84
2022/04/21 02:47:10;;;;;;;25.40;14.23;;;6.10;99.90;;;;;;4907147;29;20052;-85
2022/04/21 02:49:36;;;;;;;27.30;15.50;;;6.00;99.90;;;;;;4905198;29;20052;-85
2022/04/21 02:52:06;;;;;;;27.65;15.57;;;6.10;99.90;;;;;;4889961;29;20024;-82
2022/04/21 02:57:20;;;;;;;29.00;15.32;;;6.10;99.90;;;;;;4912080;29;20028;-83
2022/04/21 02:59:47;;;;;;;28.63;15.10;;;6.00;99.90;;;;;;4911622;29;20092;-83
2022/04/21 03:02:13;;;;;;;24.55;15.60;;;6.00;99.90;;;;;;4913100;29;20040;-84
2022/04/21 03:04:39;;;;;;;27.15;15.40;;;5.90;99.90;;;;;;4906931;29;20033;-83
2022/04/21 03:07:05;;;;;;;26.98;16.00;;;5.90;99.90;;;;;;4907517;29;20036;-85
2022/04/21 03:09:32;;;;;;;30.08;16.58;;;5.90;99.90;;;;;;4911559;29;20052;-84
2022/04/21 03:12:04;;;;;;;28.38;16.50;;;5.80;99.90;;;;;;4905997;29;20052;-86
2022/04/21 03:14:31;;;;;;;27.60;15.70;;;5.70;99.90;;;;;;4902313;29;20100;-86
2022/04/21 03:16:57;;;;;;;31.33;16.77;;;5.70;99.90;;;;;;4902050;29;20024;-85
2022/04/21 03:19:23;;;;;;;28.27;15.82;;;5.70;99.90;;;;;;4906339;29;20051;-85
2022/04/21 03:24:34;;;;;;;31.00;17.75;;;5.70;99.90;;;;;;4916007;29;20052;-83
2022/04/21 03:27:01;;;;;;;27.17;15.70;;;5.60;99.90;;;;;;4916531;29;20051;-83
2022/04/21 03:29:27;;;;;;;29.88;16.33;;;5.60;99.90;;;;;;4913456;29;20036;-85
2022/04/21 03:31:53;;;;;;;30.17;17.15;;;5.60;99.90;;;;;;4915328;29;20048;-83
2022/04/21 03:34:20;;;;;;;30.52;17.25;;;5.50;99.90;;;;;;4916184;29;20031;-84
2022/04/21 03:36:48;;;;;;;32.97;17.33;;;5.50;99.90;;;;;;4912860;29;20029;-84
2022/04/21 03:39:15;;;;;;;32.75;17.58;;;5.50;99.90;;;;;;4916206;29;20480;-84
2022/04/21 03:41:41;;;;;;;33.60;18.08;;;5.50;99.90;;;;;;4911639;29;20032;-83
2022/04/21 03:44:09;;;;;;;30.73;17.15;;;5.50;99.90;;;;;;4915417;29;20029;-85
2022/04/21 03:46:35;;;;;;;35.40;18.50;;;5.50;99.90;;;;;;4913921;29;20021;-84
2022/04/21 03:49:01;;;;;;;29.55;18.20;;;5.50;99.90;;;;;;4912499;29;20048;-85
2022/04/21 03:51:27;;;;;;;30.27;16.63;;;5.50;99.90;;;;;;4908831;29;20028;-85
2022/04/21 03:53:54;;;;;;;35.78;18.33;;;5.50;99.90;;;;;;4908019;29;20048;-84
2022/04/21 03:56:21;;;;;;;35.45;18.33;;;5.50;99.90;;;;;;4906391;29;20489;-82
2022/04/21 03:58:47;;;;;;;34.70;18.38;;;5.40;99.90;;;;;;4892794;29;20071;-84
2022/04/21 04:01:12;;;;;;;30.63;17.70;;;5.40;99.90;;;;;;4913039;29;20037;-84
2022/04/21 04:03:38;;;;;;;32.40;18.48;;;5.50;99.90;;;;;;4908501;29;20036;-86
2022/04/21 04:10:51;;;;;;;34.15;18.52;;;5.50;99.90;;;;;;4908989;29;20033;-86
2022/04/21 04:11:35;;;;;;;31.15;17.95;;;5.50;99.90;;;;;;4910968;29;20044;-84
2022/04/21 04:14:00;;;;;;;34.88;19.73;;;5.50;99.90;;;;;;4893764;29;20032;-84
2022/04/21 04:16:27;;;;;;;35.33;18.40;;;5.50;99.90;;;;;;4913723;29;20028;-82
2022/04/21 04:18:54;;;;;;;31.88;17.60;;;5.50;99.90;;;;;;4911380;29;20024;-82
2022/04/21 04:21:19;;;;;;;33.78;19.20;;;5.60;99.90;;;;;;4912332;29;20027;-86
2022/04/21 04:23:45;;;;;;;35.63;18.33;;;5.60;99.90;;;;;;4910264;29;20024;-85
2022/04/21 04:26:11;;;;;;;36.92;18.52;;;5.60;99.90;;;;;;4911388;29;20048;-83
2022/04/21 04:28:37;;;;;;;41.17;20.85;;;5.60;99.90;;;;;;4912021;29;20040;-85
2022/04/21 04:31:03;;;;;;;33.78;19.10;;;5.60;99.90;;;;;;4907758;29;20039;-84
2022/04/21 04:33:28;;;;;;;39.22;18.92;;;5.60;99.90;;;;;;4904167;29;20080;-84
2022/04/21 04:35:54;;;;;;;35.10;18.92;;;5.60;99.90;;;;;;4885319;29;20085;-84
2022/04/21 04:38:20;;;;;;;46.33;20.25;;;5.60;99.90;;;;;;4899804;29;20071;-86
2022/04/21 04:40:46;;;;;;;38.67;19.75;;;5.70;99.90;;;;;;4903890;29;20123;-84
2022/04/21 04:43:11;;;;;;;39.30;18.98;;;5.70;99.90;;;;;;4903533;29;20037;-84
2022/04/21 04:48:22;;;;;;;34.87;19.37;;;5.70;99.90;;;;;;4900301;29;20043;-86
2022/04/21 04:50:47;;;;;;;36.80;19.95;;;5.70;99.90;;;;;;4902374;29;20028;-86
2022/04/21 04:53:14;;;;;;;38.45;21.27;;;5.70;99.90;;;;;;4907815;29;20044;-85
2022/04/21 04:55:39;;;;;;;37.88;19.77;;;5.70;99.90;;;;;;4920650;29;20032;-84
2022/04/21 04:58:05;;;;;;;36.20;20.48;;;5.80;99.90;;;;;;4921304;29;20039;-84
2022/04/21 05:00:31;;;;;;;39.83;21.15;;;5.80;99.90;;;;;;4921327;29;20021;-84
2022/04/21 05:02:57;;;;;;;39.67;21.40;;;5.80;99.90;;;;;;4921204;29;20016;-83
2022/04/21 05:05:22;;;;;;;39.03;20.65;;;5.90;99.90;;;;;;4912679;29;20056;-85
2022/04/21 05:07:48;;;;;;;37.03;20.00;;;5.90;99.90;;;;;;4918876;29;20032;-85
2022/04/21 05:10:18;;;;;;;35.33;19.13;;;5.90;99.90;;;;;;4898507;29;20033;-87
2022/04/21 05:12:44;;;;;;;37.60;20.10;;;6.00;99.90;;;;;;4890584;29;20033;-86
2022/04/21 05:15:10;;;;;;;39.70;20.08;;;5.90;99.90;;;;;;4890182;29;20053;-86
2022/04/21 05:17:36;;;;;;;37.00;20.42;;;6.00;99.90;;;;;;4893620;29;20005;-85
2022/04/21 05:20:03;;;;;;;42.63;21.50;;;6.10;99.90;;;;;;4901660;29;20113;-87
2022/04/21 05:22:37;;;;;;;37.95;20.58;;;6.20;99.90;;;;;;4913203;29;20052;-85
2022/04/21 05:25:08;;;;;;;39.20;20.75;;;6.30;99.90;;;;;;4903001;29;20048;-87
2022/04/21 05:27:35;;;;;;;33.78;20.13;;;6.60;99.90;;;;;;4918662;29;20109;-86
2022/04/21 05:32:48;;;;;;;37.58;20.58;;;7.00;99.90;;;;;;4903558;29;20062;-85
2022/04/21 05:35:16;;;;;;;39.08;21.73;;;7.10;99.90;;;;;;4903365;29;20049;-85
2022/04/21 05:37:42;;;;;;;35.08;21.17;;;7.10;99.90;;;;;;4952344;23;20051;-85
2022/04/21 05:40:08;;;;;;;37.05;21.80;;;7.10;99.90;;;;;;4939164;29;20036;-86
2022/04/21 05:42:45;;;;;;;37.78;20.15;;;7.10;99.90;;;;;;4936693;29;20028;-86
2022/04/21 05:45:12;;;;;;;38.97;21.20;;;7.10;99.90;;;;;;4940569;29;20024;-85
2022/04/21 05:47:40;;;;;;;38.90;21.92;;;7.00;99.90;;;;;;4940668;29;20100;-86
2022/04/21 05:50:06;;;;;;;38.15;21.20;;;7.10;99.90;;;;;;4939595;29;20039;-86
2022/04/21 05:52:34;;;;;;;42.60;22.80;;;7.20;99.90;;;;;;4939633;29;20038;-87
2022/04/21 05:55:00;;;;;;;36.60;21.45;;;7.30;99.90;;;;;;4936407;29;20036;-85
2022/04/21 05:57:27;;;;;;;43.45;22.13;;;7.30;99.90;;;;;;4971300;23;20124;-80
2022/04/21 05:59:53;;;;;;;39.38;22.58;;;7.30;99.90;;;;;;4910563;29;20060;-81
2022/04/21 06:02:18;;;;;;;44.05;22.60;;;7.20;99.90;;;;;;4903307;29;20315;-81
2022/04/21 06:04:44;;;;;;;42.40;22.45;;;7.20;99.90;;;;;;4908315;29;20067;-80
2022/04/21 06:07:10;;;;;;;40.00;22.30;;;7.20;99.90;;;;;;4906990;29;20029;-80
2022/04/21 06:09:36;;;;;;;44.17;22.33;;;7.30;99.90;;;;;;4913752;29;20013;-78
2022/04/21 06:12:03;;;;;;;39.72;22.55;;;7.40;99.90;;;;;;4912758;29;20025;-80
2022/04/21 06:14:28;;;;;;;37.35;20.92;;;7.60;99.90;;;;;;4905645;29;20033;-80
2022/04/21 06:16:54;;;;;;;39.97;21.73;;;7.80;99.90;;;;;;4906842;29;20109;-79
2022/04/21 06:19:20;;;;;;;36.88;21.30;;;8.00;99.90;;;;;;4915790;29;20033;-80
2022/04/21 06:21:46;;;;;;;39.30;21.48;;;8.20;99.90;;;;;;4913019;29;20029;-79
2022/04/21 06:24:11;;;;;;;44.88;21.38;;;8.10;99.90;;;;;;4903886;29;20047;-79
2022/04/21 06:26:38;;;;;;;40.83;22.00;;;8.20;99.90;;;;;;4906486;29;20041;-80
2022/04/21 06:29:05;;;;;;;40.65;22.15;;;8.30;99.90;;;;;;4906029;29;20035;-78
2022/04/21 06:31:30;;;;;;;37.53;21.17;;;8.40;99.90;;;;;;4915224;29;20021;-78
2022/04/21 06:33:58;;;;;;;40.67;21.27;;;8.50;99.90;;;;;;4916426;29;20088;-78
2022/04/21 06:36:24;;;;;;;37.75;21.25;;;8.60;99.90;;;;;;4914618;29;20024;-80
2022/04/21 06:38:51;;;;;;;35.92;20.95;;;8.70;99.90;;;;;;4914904;29;20058;-79
2022/04/21 06:41:16;;;;;;;34.35;21.25;;;8.80;99.90;;;;;;4917012;29;20044;-78
2022/04/21 06:49:11;;;;;;;39.07;21.90;;;9.00;99.90;;;;;;4908167;29;20033;-80
2022/04/21 06:51:39;;;;;;;32.78;20.33;;;9.10;99.90;;;;;;4903854;29;20401;-78
2022/04/21 06:54:05;;;;;;;44.88;22.60;;;9.10;99.90;;;;;;4903222;29;20040;-81
2022/04/21 06:56:31;;;;;;;39.58;23.65;;;9.30;99.90;;;;;;4908880;29;20025;-79
2022/04/21 06:58:56;;;;;;;35.03;22.08;;;9.30;99.90;;;;;;4918503;29;20040;-83
2022/04/21 07:01:23;;;;;;;36.47;23.13;;;9.40;99.90;;;;;;4910005;29;20025;-80
2022/04/21 07:03:50;;;;;;;38.55;22.23;;;9.40;99.90;;;;;;4908682;29;20029;-79
2022/04/21 07:06:16;;;;;;;35.22;22.08;;;9.50;99.90;;;;;;4904731;29;20017;-78
2022/04/21 07:08:42;;;;;;;39.30;23.20;;;9.60;99.90;;;;;;4907381;29;20032;-79
2022/04/21 07:11:08;;;;;;;35.75;21.95;;;9.60;99.90;;;;;;4905894;29;20100;-78
2022/04/21 07:13:33;;;;;;;37.00;22.45;;;9.70;99.90;;;;;;4904607;29;20051;-80
2022/04/21 07:15:59;;;;;;;36.85;21.58;;;9.80;99.90;;;;;;4905515;29;20076;-79
2022/04/21 07:18:25;;;;;;;42.45;23.02;;;9.90;99.90;;;;;;4905662;29;20040;-81
2022/04/21 07:20:51;;;;;;;38.22;23.33;;;10.00;99.90;;;;;;4903149;29;20048;-79
2022/04/21 07:23:16;;;;;;;40.88;22.20;;;10.20;99.90;;;;;;4910548;29;20036;-80
2022/04/21 07:25:42;;;;;;;38.00;22.35;;;10.20;99.90;;;;;;4912778;29;20028;-78
2022/04/21 07:28:08;;;;;;;37.17;22.10;;;10.30;99.90;;;;;;4905807;29;20036;-79
2022/04/21 07:30:34;;;;;;;45.30;24.42;;;10.30;99.90;;;;;;4906799;29;20036;-79
2022/04/21 07:33:00;;;;;;;36.60;23.33;;;10.30;99.90;;;;;;4904721;29;20033;-79
2022/04/21 07:35:26;;;;;;;38.97;22.90;;;10.30;99.90;;;;;;4903498;29;20028;-80
2022/04/21 07:37:52;;;;;;;39.40;24.05;;;10.30;99.90;;;;;;4904038;29;20032;-79
2022/04/21 07:40:20;;;;;;;41.90;24.65;;;10.40;99.90;;;;;;4906318;29;20510;-79
2022/04/21 07:42:47;;;;;;;35.67;22.83;;;10.40;99.90;;;;;;4907323;29;20036;-79
2022/04/21 07:45:13;;;;;;;43.60;25.00;;;10.50;99.90;;;;;;4912065;29;20028;-78
2022/04/21 07:47:39;;;;;;;36.13;22.83;;;10.50;99.90;;;;;;4909210;29;20044;-80
2022/04/21 07:50:05;;;;;;;46.80;24.02;;;10.60;99.90;;;;;;4902367;29;20477;-80
2022/04/21 07:55:25;;;;;;;40.50;24.35;;;10.80;99.90;;;;;;4905932;29;20100;-79
2022/04/21 07:57:58;;;;;;;35.95;23.80;;;10.70;99.90;;;;;;4910606;29;20044;-81
2022/04/21 08:00:25;;;;;;;37.05;24.25;;;10.80;99.90;;;;;;4905331;29;20478;-79
2022/04/21 08:02:51;;;;;;;38.05;24.10;;;10.90;99.90;;;;;;4902616;29;20052;-81
2022/04/21 08:05:20;;;;;;;38.85;24.25;;;10.90;99.90;;;;;;4902528;29;20040;-81
2022/04/21 08:07:46;;;;;;;35.83;23.08;;;11.00;99.90;;;;;;4903450;29;20130;-79
2022/04/21 08:10:14;;;;;;;40.03;24.38;;;11.20;99.90;;;;;;4903501;29;20028;-80
2022/04/21 08:12:44;;;;;;;40.08;24.67;;;11.30;99.90;;;;;;4903746;29;20548;-80
2022/04/21 08:15:15;;;;;;;38.83;24.55;;;11.20;99.90;;;;;;4903012;29;20033;-82
2022/04/21 08:17:41;;;;;;;39.60;24.02;;;11.30;99.90;;;;;;4903354;29;20037;-80
2022/04/21 08:20:09;;;;;;;43.25;25.50;;;11.60;99.90;;;;;;4904526;29;20033;-79
2022/04/21 08:22:35;;;;;;;41.70;24.98;;;11.80;99.90;;;;;;4887619;29;20040;-80
2022/04/21 08:33:15;;;;;;;37.90;24.93;;;12.10;99.90;;;;;;4910681;29;20047;-79
2022/04/21 08:35:41;;;;;;;41.17;25.95;;;11.90;99.90;;;;;;4909976;29;20037;-78
2022/04/21 08:38:10;;;;;;;42.63;25.58;;;11.70;99.90;;;;;;4915786;29;20043;-79
2022/04/21 08:40:37;;;;;;;46.05;26.00;;;11.70;99.90;;;;;;4921192;29;20048;-79
2022/04/21 08:43:17;;;;;;;40.28;24.38;;;11.90;99.90;;;;;;4914278;29;20100;-80
2022/04/21 08:45:44;;;;;;;42.92;24.27;;;12.10;99.90;;;;;;4905432;29;20028;-80
2022/04/21 08:48:11;;;;;;;39.45;23.65;;;12.30;99.90;;;;;;4912967;29;20012;-79
2022/04/21 08:50:39;;;;;;;40.30;23.05;;;12.40;99.90;;;;;;4920132;29;20072;-77
2022/04/21 08:53:14;;;;;;;33.92;21.63;;;12.30;99.90;;;;;;4920673;29;20045;-78
2022/04/21 08:55:40;;;;;;;37.40;23.15;;;12.30;99.90;;;;;;4919575;29;20032;-80
2022/04/21 08:58:06;;;;;;;35.03;21.88;;;12.30;99.90;;;;;;4920218;29;20040;-78
2022/04/21 09:00:32;;;;;;;34.08;21.23;;;12.30;99.90;;;;;;4921448;29;20024;-77
2022/04/21 09:03:06;;;;;;;32.55;21.05;;;12.30;99.90;;;;;;4920333;29;20016;-79
2022/04/21 09:05:32;;;;;;;32.90;21.52;;;12.40;99.50;;;;;;4913290;29;20037;-81
2022/04/21 09:07:59;;;;;;;34.05;20.83;;;12.40;99.50;;;;;;4915356;29;20016;-79
2022/04/21 09:10:27;;;;;;;31.98;21.25;;;12.50;99.90;;;;;;4921264;29;20065;-81
2022/04/21 09:12:58;;;;;;;33.50;21.52;;;12.80;99.80;;;;;;4909001;29;20032;-82
2022/04/21 09:15:30;;;;;;;31.15;21.27;;;13.00;99.70;;;;;;4905842;29;20037;-79
2022/04/21 09:18:01;;;;;;;36.72;21.92;;;13.10;99.60;;;;;;4905276;29;20057;-79
2022/04/21 09:20:30;;;;;;;29.40;20.30;;;13.30;99.00;;;;;;4908763;29;20033;-78
2022/04/21 09:23:02;;;;;;;32.42;21.13;;;13.60;98.90;;;;;;4909003;29;20123;-80
2022/04/21 09:25:31;;;;;;;30.27;20.52;;;14.10;98.60;;;;;;4904488;29;20039;-80
2022/04/21 09:27:58;;;;;;;27.75;20.15;;;14.50;97.50;;;;;;4913040;29;20073;-78
2022/04/21 09:30:24;;;;;;;33.35;20.65;;;15.10;96.80;;;;;;4917185;29;20044;-78
2022/04/21 09:33:00;;;;;;;26.08;18.42;;;15.40;95.70;;;;;;4919077;29;20040;-77
2022/04/21 09:35:27;;;;;;;25.63;18.10;;;15.90;94.60;;;;;;4919498;29;20088;-78
2022/04/21 09:37:55;;;;;;;25.40;16.45;;;16.80;93.50;;;;;;4922654;29;20044;-79
2022/04/21 09:40:25;;;;;;;23.65;15.52;;;17.90;91.90;;;;;;4918504;29;20045;-80
2022/04/21 09:43:00;;;;;;;24.45;16.83;;;19.00;88.10;;;;;;4920959;29;20068;-78
2022/04/21 09:48:20;;;;;;;21.00;15.68;;;20.50;82.20;;;;;;4914579;29;20032;-81
2022/04/21 09:50:51;;;;;;;26.17;15.90;;;21.50;78.90;;;;;;4917487;29;20405;-80
2022/04/21 09:53:19;;;;;;;20.67;15.48;;;22.90;74.90;;;;;;4919104;29;20039;-80
2022/04/21 09:55:46;;;;;;;20.33;14.73;;;23.80;70.10;;;;;;4918194;29;20024;-79
2022/04/21 09:58:13;;;;;;;20.48;14.45;;;24.50;67.20;;;;;;4914701;29;20439;-82
2022/04/21 10:00:41;;;;;;;23.08;15.00;;;24.70;63.60;;;;;;4911793;29;20052;-82
2022/04/21 10:03:08;;;;;;;21.27;14.63;;;24.20;64.10;;;;;;4910447;29;20040;-80
2022/04/21 10:05:36;;;;;;;18.25;15.18;;;24.80;62.50;;;;;;4910486;29;20031;-82
2022/04/21 10:08:04;;;;;;;20.35;15.20;;;25.90;60.70;;;;;;4904359;29;20040;-79
2022/04/21 10:10:32;;;;;;;20.65;14.75;;;25.50;60.00;;;;;;4907516;29;20036;-80
2022/04/21 10:13:02;;;;;;;21.13;14.25;;;25.80;59.70;;;;;;4906499;29;20033;-80
2022/04/21 10:15:29;;;;;;;18.58;13.15;;;27.10;58.50;;;;;;4905403;29;20120;-80
2022/04/21 10:17:55;;;;;;;19.05;13.40;;;28.00;56.00;;;;;;4910378;29;20036;-81
2022/04/21 10:20:23;;;;;;;20.90;14.93;;;28.70;55.30;;;;;;4907006;29;20033;-82
2022/04/21 10:22:51;;;;;;;18.83;15.00;;;28.30;54.60;;;;;;4909971;29;20024;-82
2022/04/21 10:25:22;;;;;;;15.32;11.98;;;28.20;54.00;;;;;;4908524;29;20029;-82
2022/04/21 10:27:49;;;;;;;18.95;11.70;;;28.40;53.20;;;;;;4904343;29;20069;-78
2022/04/21 10:30:21;;;;;;;16.70;11.80;;;28.50;51.80;;;;;;4905389;29;20028;-81
2022/04/21 10:32:55;;;;;;;16.70;10.93;;;28.60;51.30;;;;;;4905687;29;20033;-83
2022/04/21 10:35:23;;;;;;;21.35;12.15;;;28.60;50.80;;;;;;4905064;29;20377;-80
2022/04/21 10:38:19;;;;;;;17.33;12.10;;;28.80;50.60;;;;;;4903206;29;20092;-81
2022/04/21 10:40:54;;;;;;;24.17;12.23;;;28.10;50.40;;;;;;4905546;29;20105;-81
2022/04/21 10:43:20;;;;;;;16.38;10.95;;;28.10;50.00;;;;;;4907015;29;20092;-79
2022/04/21 10:46:04;;;;;;;21.98;11.73;;;29.00;49.40;;;;;;4904461;29;20067;-80
2022/04/21 10:48:40;;;;;;;15.02;11.05;;;30.10;48.50;;;;;;4903289;29;20517;-80
2022/04/21 10:51:06;;;;;;;13.77;10.63;;;30.40;46.50;;;;;;4908168;29;20045;-82
2022/04/21 11:00:03;;;;;;;15.63;9.43;;;30.20;46.00;;;;;;4908403;29;20048;-80
2022/04/21 11:02:45;;;;;;;17.17;9.95;;;30.60;45.50;;;;;;4911358;29;20120;-80
2022/04/21 11:05:23;;;;;;;15.52;10.45;;;30.30;45.30;;;;;;4911683;29;20047;-78
2022/04/21 11:07:51;;;;;;;14.43;10.93;;;31.20;45.80;;;;;;4907149;29;20043;-81
2022/04/21 11:10:39;;;;;;;13.95;11.75;;;31.70;45.10;;;;;;4911519;29;20033;-79
2022/04/21 11:13:07;;;;;;;13.98;12.40;;;31.40;45.40;;;;;;4913207;29;20112;-78
2022/04/21 11:15:36;;;;;;;16.90;11.52;;;30.90;45.40;;;;;;4913471;29;20025;-78
2022/04/21 11:18:09;;;;;;;16.02;11.13;;;30.90;45.50;;;;;;4911330;29;20115;-80
2022/04/21 11:20:37;;;;;;;16.23;12.25;;;31.30;45.10;;;;;;4905426;29;20115;-80
2022/04/21 11:23:03;;;;;;;14.02;11.82;;;30.90;45.20;;;;;;4910160;29;20059;-81
2022/04/21 11:25:33;;;;;;;13.82;11.07;;;32.00;45.00;;;;;;4910888;29;20033;-79
2022/04/21 11:27:59;;;;;;;15.43;9.25;;;32.10;44.70;;;;;;4913154;29;20080;-79
2022/04/21 11:30:25;;;;;;;11.73;7.85;;;32.20;42.60;;;;;;4905627;29;20398;-78
2022/04/21 11:32:52;;;;;;;11.40;6.30;;;31.20;43.20;;;;;;4910559;29;20107;-80
2022/04/21 11:35:21;;;;;;;8.25;6.00;;;30.50;42.90;;;;;;4907324;29;20599;-80
2022/04/21 11:38:05;;;;;;;8.10;5.50;;;28.60;43.40;;;;;;4902901;29;20032;-81
2022/04/21 11:40:34;;;;;;;9.95;5.90;;;28.20;44.10;;;;;;4903599;29;20041;-81
2022/04/21 11:43:04;;;;;;;12.57;5.97;;;29.30;43.80;;;;;;4914956;29;20047;-81
2022/04/21 11:45:36;;;;;;;8.88;5.50;;;29.20;42.60;;;;;;4906288;29;20047;-80
2022/04/21 11:48:13;;;;;;;11.13;5.55;;;29.50;43.40;;;;;;4905642;29;20033;-80
2022/04/21 11:50:46;;;;;;;8.77;5.15;;;29.50;43.10;;;;;;4908234;29;20032;-79
2022/04/21 11:53:20;;;;;;;7.73;5.10;;;29.60;43.60;;;;;;4913561;29;20284;-79
2022/04/21 11:55:48;;;;;;;9.02;4.93;;;29.90;42.80;;;;;;4909672;29;20096;-82
2022/04/21 11:58:27;;;;;;;7.80;5.30;;;30.20;43.00;;;;;;4934491;23;20049;-85
2022/04/21 12:06:39;;;;;;;8.27;5.43;;;28.70;44.10;;;;;;4917281;29;20156;-87
2022/04/21 12:09:06;;;;;;;8.20;5.65;;;28.50;44.20;;;;;;4905672;29;20329;-88
2022/04/21 12:11:33;;;;;;;7.32;5.10;;;28.70;44.40;;;;;;4900414;29;20040;-87
2022/04/21 12:13:59;;;;;;;6.32;5.10;;;29.20;44.60;;;;;;4901221;29;20037;-86
2022/04/21 12:16:38;;;;;;;7.82;4.63;;;29.30;44.60;;;;;;4901292;29;20044;-87
2022/04/21 12:19:14;;;;;;;6.82;5.20;;;29.60;44.50;;;;;;4897948;29;20041;-88
2022/04/21 12:22:09;;;;;;;6.32;5.30;;;30.50;44.00;;;;;;5148712;27;20136;-85
2022/04/21 12:24:39;;;;;;;7.53;4.82;;;30.40;43.60;;;;;;5134164;27;20032;-86
2022/04/21 12:27:16;;;;;;;5.90;4.80;;;30.90;43.70;;;;;;5133671;27;20027;-86
2022/04/21 12:29:53;;;;;;;5.97;4.10;;;30.60;44.10;;;;;;5133777;27;20023;-85
2022/04/21 12:32:22;;;;;;;10.10;5.13;;;30.10;43.90;;;;;;5127733;28;20046;-86
2022/04/21 12:34:48;;;;;;;7.65;4.53;;;30.30;43.30;;;;;;5130208;28;20015;-86
2022/04/21 12:37:14;;;;;;;11.52;4.68;;;29.50;43.90;;;;;;5127770;28;20036;-86
2022/04/21 12:39:41;;;;;;;6.15;4.85;;;29.60;44.10;;;;;;5117401;28;20023;-86
2022/04/21 12:42:07;;;;;;;9.05;4.32;;;29.80;44.00;;;;;;5117401;28;20028;-88
2022/04/21 12:44:33;;;;;;;6.72;4.60;;;28.90;44.20;;;;;;5119384;28;20028;-86
2022/04/21 12:47:00;;;;;;;5.90;4.65;;;28.60;44.60;;;;;;5117198;28;20084;-86
2022/04/21 12:50:04;;;;;;;5.55;4.50;;;29.20;44.00;;;;;;5121498;28;20082;-86
2022/04/21 12:52:40;;;;;;;21.38;4.28;;;29.50;43.50;;;;;;5121245;28;20043;-86
2022/04/21 12:55:17;;;;;;;5.45;4.30;;;29.00;43.60;;;;;;5120439;28;20020;-86
2022/04/21 12:58:09;;;;;;;5.20;3.72;;;30.00;43.30;;;;;;5132482;27;20034;-84
2022/04/21 13:00:41;;;;;;;5.70;3.50;;;30.50;42.60;;;;;;5129672;28;20031;-87
2022/04/21 13:03:10;;;;;;;6.88;3.25;;;31.70;42.20;;;;;;5127114;28;20057;-86
2022/04/21 13:05:49;;;;;;;11.18;3.58;;;32.80;41.70;;;;;;5123584;28;20111;-86
2022/04/21 13:08:24;;;;;;;4.88;3.40;;;33.10;41.20;;;;;;5112336;28;20036;-87
2022/04/21 13:10:51;;;;;;;6.85;3.45;;;33.00;41.00;;;;;;5106770;28;20093;-87
2022/04/21 13:13:17;;;;;;;5.43;2.95;;;32.30;41.20;;;;;;5105820;28;20310;-88
2022/04/21 13:15:44;;;;;;;5.32;3.22;;;31.90;41.20;;;;;;5106730;28;20028;-86
2022/04/21 13:18:11;;;;;;;6.00;3.35;;;31.60;41.30;;;;;;5104095;28;20081;-87
2022/04/21 13:23:24;;;;;;;6.43;3.70;;;31.00;41.80;;;;;;5108439;28;20088;-86
2022/04/21 13:25:50;;;;;;;4.63;3.22;;;31.60;41.80;;;;;;5108731;28;20024;-86
2022/04/21 13:28:15;;;;;;;7.28;3.72;;;31.30;41.40;;;;;;5105789;28;20016;-88
2022/04/21 13:30:41;;;;;;;3.35;2.88;;;31.80;41.30;;;;;;5109871;28;20092;-88
2022/04/21 13:33:22;;;;;;;7.15;3.35;;;31.20;41.20;;;;;;5099767;28;20031;-87
2022/04/21 13:35:52;;;;;;;4.32;3.20;;;29.80;41.80;;;;;;5110714;28;20024;-87
2022/04/21 13:38:19;;;;;;;3.45;2.72;;;29.70;42.30;;;;;;5104241;28;20025;-88